Portada
METAR-TAF:

METAR-TAF

Aeroports :

Dubai World Central International Airport

Dubai, Emirats Àrabs Units

latitud: 24-53-49N, longitud: 55-09-40E, altitud: 35 m

Observació

L'informe es va fer fa 27 minuts, a les 23:00 UTC
Vent 3 kt del Sud
Temperatura 18°C
Humitat 64%
Pressió 1017 hPa
Visibilitat 10 km o més
sense núvols per sota de 1500 mi sense presència de cumulonimbus.

METAR: OMDW 132300Z 17003KT CAVOK 18/11 Q1017 NOSIG

Hora: 03:27 (23:27 UTC)

Pronòstic

L'informe es va fer fa 6 hores i 32 minuts, a les 16:55 UTC
Pronòstic vàlid del 13 a les 18 UTC al 15 a les 00 UTC
Vent 5 kt del Est/Nord-Est
Visibilitat 10 km o més
sense núvols per sota de 1500 mi sense presència de cumulonimbus.
Evolucionant progressivament
l' 14 a les 10 UTC al 14 a les 12 UTC
Vent 13 kt del Nord
Evolucionant progressivament
l' 14 a les 16 UTC al 14 a les 18 UTC
Vent 5 kt del Est

TAF: OMDW 131655Z 1318/1500 07005KT CAVOK BECMG 1410/1412 35013KT BECMG 1416/1418 10005KT

Observacions i pronòstics meteorològics de més de 4000 aeroports (METAR i TAF).

Les estacions disponibles són els punts grocs i vermells al mapa.

Posi el ratolí al punt desitjat per veure el nom de l'estació.

Feu clic per veure les observacions i els pronòstics meteorològics.

Per canviar el mapa: feu clic els botons verds amb una creu de color negre per apropar; al botó verd amb un guió per allunyar la imatge; o en les fletxes verdes per a mapes adjacents.


METAR-TAF: